This is the latest recevied weather packets stored in our database for station/object VA3XLC. If no packets are shown the sender has not sent any weather packets the latest 10 day(s).
| Time | Temp. | Humidity | Pressure | Rain* | Wind** | Luminosity | Snow |
|---|---|---|---|---|---|---|---|
| 1777879369 | 10.56° C | 63% | 973.8 hPa | - | - | 0 W/m² | - |
| 1777879069 | 10.56° C | 62% | 973.9 hPa | - | - | 0 W/m² | - |
| 1777877847 | 10.56° C | 61% | 974.1 hPa | - | - | 0 W/m² | - |
| 1777876946 | 10.56° C | 60% | 974.2 hPa | - | - | 0 W/m² | - |
| 1777875124 | 11.11° C | 58% | 974.6 hPa | - | - | 0 W/m² | - |
| 1777874823 | 11.11° C | 58% | 974.7 hPa | - | - | 0 W/m² | - |
| 1777872058 | 11.11° C | 56% | 975.1 hPa | - | - | 0 W/m² | - |
| 1777871136 | 11.11° C | 56% | 975.3 hPa | - | - | 0 W/m² | - |
| 1777870836 | 11.11° C | 57% | 975.3 hPa | - | - | 0 W/m² | - |
| 1777868433 | 11.67° C | 57% | 975.4 hPa | - | - | 0 W/m² | - |
| 1777867833 | 11.67° C | 56% | 975.4 hPa | - | - | 0 W/m² | - |
| 1777863608 | 12.78° C | 54% | 975.8 hPa | - | - | 0 W/m² | - |
| 1777863008 | 12.78° C | 53% | 975.8 hPa | - | - | 0 W/m² | - |
| 1777861765 | 12.78° C | 50% | 975.7 hPa | - | - | 0 W/m² | - |
| 1777860564 | 12.78° C | 48% | 975.6 hPa | - | - | 0 W/m² | - |
| 1777859963 | 13.33° C | 48% | 975.6 hPa | - | - | 0 W/m² | - |
| 1777859041 | 13.33° C | 47% | 975.5 hPa | - | - | 0 W/m² | - |
| 1777858741 | 13.33° C | 46% | 975.5 hPa | - | - | 0 W/m² | - |
| 1777858440 | 13.33° C | 46% | 975.4 hPa | - | - | 0 W/m² | - |
| 1777858140 | 13.33° C | 46% | 975.4 hPa | - | - | 0 W/m² | - |
| 1777857540 | 13.33° C | 47% | 975.3 hPa | - | - | 0 W/m² | - |
| 1777852071 | 15° C | 38% | 975 hPa | - | - | 17 W/m² | - |
| 1777851128 | 15° C | 37% | 975 hPa | - | - | 33 W/m² | - |
| 1777849284 | 15° C | 36% | 975.2 hPa | - | - | 54 W/m² | - |
| 1777847482 | 15° C | 36% | 975.4 hPa | - | - | 93 W/m² | - |
* Rain since midnight (hover to see other rain measurements)
** Current wind speed in m/s (hover to see current wind gust speed)